Time;durP1;ratioP1;P1;durP2;ratioP2;P2;SDS_P1;SDS_P2;PMS_P1;PMS_P2;Temp;Humidity;BMP_temperature;BMP_pressure;BME280_temperature;BME280_humidity;BME280_pressure;Samples;Min_cycle;Max_cycle;Signal;HPM_P1;HPM_P2
2023/06/13 00:01:27;;;;;;;5.00;4.63;;;;;;;;;;5093802;28;20454;-86
2023/06/13 00:03:55;;;;;;;8.50;5.15;;;;;;;;;;5093672;28;20048;-86
2023/06/13 00:06:23;;;;;;;5.90;5.05;;;;;;;;;;5094837;28;20559;-86
2023/06/13 00:08:50;;;;;;;9.02;5.03;;;;;;;;;;5092620;28;20493;-85
2023/06/13 00:11:17;;;;;;;7.57;4.45;;;;;;;;;;5093761;28;20050;-87
2023/06/13 00:13:45;;;;;;;6.00;5.40;;;;;;;;;;5094425;28;20420;-86
2023/06/13 00:16:12;;;;;;;5.90;4.50;;;;;;;;;;5094533;28;20549;-86
2023/06/13 00:18:39;;;;;;;8.50;5.25;;;;;;;;;;5093579;28;20098;-85
2023/06/13 00:21:07;;;;;;;5.90;5.40;;;;;;;;;;5092838;28;20069;-85
2023/06/13 00:23:34;;;;;;;8.15;5.15;;;;;;;;;;5092477;28;20562;-86
2023/06/13 00:26:01;;;;;;;5.40;4.82;;;;;;;;;;5092831;28;20048;-86
2023/06/13 00:28:29;;;;;;;6.13;5.50;;;;;;;;;;5092437;28;20036;-86
2023/06/13 00:30:56;;;;;;;5.28;4.88;;;;;;;;;;5093812;28;20509;-86
2023/06/13 00:33:31;;;;;;;5.80;5.30;;;;;;;;;;5093487;28;20044;-86
2023/06/13 00:35:58;;;;;;;6.65;5.55;;;;;;;;;;5092576;28;20067;-86
2023/06/13 00:38:28;;;;;;;6.43;4.50;;;;;;;;;;5093073;28;20406;-86
2023/06/13 00:40:56;;;;;;;5.95;5.15;;;;;;;;;;5092523;28;20146;-86
2023/06/13 00:43:26;;;;;;;7.28;5.07;;;;;;;;;;5093103;28;20075;-86
2023/06/13 00:45:55;;;;;;;5.53;5.03;;;;;;;;;;5092027;28;20051;-86
2023/06/13 00:48:22;;;;;;;5.88;5.18;;;;;;;;;;5092929;28;20073;-86
2023/06/13 00:50:50;;;;;;;6.32;5.30;;;;;;;;;;5093642;28;20048;-86
2023/06/13 00:53:19;;;;;;;6.47;5.88;;;;;;;;;;5101734;28;20052;-86
2023/06/13 00:55:47;;;;;;;7.28;5.18;;;;;;;;;;5113109;28;20090;-86
2023/06/13 00:58:15;;;;;;;5.65;5.07;;;;;;;;;;5112688;28;20500;-86
2023/06/13 01:00:44;;;;;;;9.35;5.60;;;;;;;;;;5113179;28;20055;-86
2023/06/13 01:03:15;;;;;;;5.97;5.38;;;;;;;;;;5113044;28;20506;-86
2023/06/13 01:05:43;;;;;;;5.65;4.95;;;;;;;;;;5112870;28;20048;-85
2023/06/13 01:08:12;;;;;;;9.40;5.30;;;;;;;;;;5112886;28;20083;-86
2023/06/13 01:10:42;;;;;;;5.43;4.93;;;;;;;;;;5113002;28;20047;-85
2023/06/13 01:13:13;;;;;;;6.13;5.45;;;;;;;;;;5113113;28;20155;-86
2023/06/13 01:15:53;;;;;;;5.53;5.10;;;;;;;;;;5112349;28;20039;-86
2023/06/13 01:18:24;;;;;;;5.53;4.93;;;;;;;;;;5113997;28;20047;-86
2023/06/13 01:20:57;;;;;;;7.88;6.18;;;;;;;;;;5112077;28;20087;-86
2023/06/13 01:23:30;;;;;;;5.88;5.30;;;;;;;;;;5112671;28;20450;-86
2023/06/13 01:26:07;;;;;;;6.35;5.55;;;;;;;;;;5113793;28;20392;-86
2023/06/13 01:28:36;;;;;;;5.80;5.30;;;;;;;;;;5113743;28;20128;-86
2023/06/13 01:31:06;;;;;;;7.20;5.68;;;;;;;;;;5112474;28;20058;-86
2023/06/13 01:33:34;;;;;;;6.40;5.90;;;;;;;;;;5112719;28;20043;-85
2023/06/13 01:36:01;;;;;;;8.45;6.00;;;;;;;;;;5112442;28;20462;-85
2023/06/13 01:38:29;;;;;;;6.43;5.57;;;;;;;;;;5112703;28;20056;-86
2023/06/13 01:40:56;;;;;;;6.63;5.80;;;;;;;;;;5112373;28;20081;-86
2023/06/13 01:43:23;;;;;;;6.68;6.07;;;;;;;;;;5112440;28;20055;-85
2023/06/13 01:45:55;;;;;;;6.65;5.93;;;;;;;;;;5112719;28;20056;-86
2023/06/13 01:48:25;;;;;;;7.63;6.80;;;;;;;;;;5113848;28;20070;-87
2023/06/13 01:51:04;;;;;;;7.32;6.28;;;;;;;;;;5112138;28;20492;-86
2023/06/13 01:53:43;;;;;;;8.18;5.35;;;;;;;;;;5112441;28;20055;-86
2023/06/13 01:56:14;;;;;;;5.90;5.40;;;;;;;;;;5112377;28;20077;-86
2023/06/13 01:58:57;;;;;;;9.32;6.38;;;;;;;;;;5116122;28;20048;-86
2023/06/13 02:01:26;;;;;;;8.43;5.55;;;;;;;;;;5116377;28;20063;-86
2023/06/13 02:03:54;;;;;;;10.13;5.90;;;;;;;;;;5116142;28;20395;-86
2023/06/13 02:06:22;;;;;;;9.73;6.00;;;;;;;;;;5116123;28;20082;-86
2023/06/13 02:08:50;;;;;;;6.78;5.95;;;;;;;;;;5116923;28;20047;-86
2023/06/13 02:11:17;;;;;;;7.22;6.18;;;;;;;;;;5116017;28;20097;-86
2023/06/13 02:13:44;;;;;;;9.07;6.22;;;;;;;;;;5116022;28;20055;-86
2023/06/13 02:16:12;;;;;;;9.05;6.63;;;;;;;;;;5115819;28;20070;-85
2023/06/13 02:18:40;;;;;;;9.02;6.10;;;;;;;;;;5115806;28;20104;-85
2023/06/13 02:21:07;;;;;;;9.02;7.25;;;;;;;;;;5116993;28;20480;-86
2023/06/13 02:23:35;;;;;;;7.10;6.40;;;;;;;;;;5115416;28;20430;-86
2023/06/13 02:26:02;;;;;;;8.57;6.20;;;;;;;;;;5117079;28;20055;-86
2023/06/13 02:28:30;;;;;;;6.93;5.97;;;;;;;;;;5116777;28;20088;-86
2023/06/13 02:30:57;;;;;;;7.03;6.32;;;;;;;;;;5115393;28;20071;-86
2023/06/13 02:33:25;;;;;;;7.00;5.97;;;;;;;;;;5115844;28;20459;-86
2023/06/13 02:35:52;;;;;;;7.63;6.82;;;;;;;;;;5115620;28;20051;-86
2023/06/13 02:38:19;;;;;;;7.25;6.55;;;;;;;;;;5115562;28;20485;-85
2023/06/13 02:40:46;;;;;;;10.50;6.70;;;;;;;;;;5115632;28;20052;-86
2023/06/13 02:43:14;;;;;;;7.78;6.50;;;;;;;;;;5115710;28;20044;-86
2023/06/13 02:45:41;;;;;;;7.45;6.53;;;;;;;;;;5115003;28;20525;-86
2023/06/13 02:48:08;;;;;;;10.32;7.35;;;;;;;;;;5116786;28;20056;-86
2023/06/13 02:50:35;;;;;;;9.07;6.47;;;;;;;;;;5116899;28;20046;-86
2023/06/13 02:53:03;;;;;;;8.85;6.60;;;;;;;;;;5115204;28;20052;-85
2023/06/13 02:55:30;;;;;;;10.15;6.18;;;;;;;;;;5116048;28;20488;-86
2023/06/13 02:57:57;;;;;;;7.05;6.35;;;;;;;;;;5116383;28;20116;-86
2023/06/13 03:00:24;;;;;;;7.18;6.32;;;;;;;;;;5116112;28;20051;-86
2023/06/13 03:02:52;;;;;;;8.57;7.70;;;;;;;;;;5115916;28;20047;-86
2023/06/13 03:05:20;;;;;;;8.23;6.63;;;;;;;;;;5115341;28;20466;-86
2023/06/13 03:07:48;;;;;;;8.30;7.07;;;;;;;;;;5115176;28;20497;-86
2023/06/13 03:10:16;;;;;;;7.47;6.38;;;;;;;;;;5114476;28;20058;-86
2023/06/13 03:12:43;;;;;;;11.65;6.55;;;;;;;;;;5114348;28;20117;-86
2023/06/13 03:15:11;;;;;;;6.97;6.38;;;;;;;;;;5115144;28;20044;-86
2023/06/13 03:17:39;;;;;;;8.25;6.32;;;;;;;;;;5114752;28;20044;-86
2023/06/13 03:20:08;;;;;;;7.68;6.22;;;;;;;;;;5115683;28;20051;-85
2023/06/13 03:22:35;;;;;;;7.97;7.10;;;;;;;;;;5114660;28;20079;-86
2023/06/13 03:25:03;;;;;;;9.77;7.03;;;;;;;;;;5119313;28;20549;-86
2023/06/13 03:27:31;;;;;;;8.32;7.45;;;;;;;;;;5114996;28;20488;-86
2023/06/13 03:29:59;;;;;;;8.27;7.15;;;;;;;;;;5114728;28;20077;-85
2023/06/13 03:32:26;;;;;;;8.32;6.47;;;;;;;;;;5114557;28;20052;-86
2023/06/13 03:34:54;;;;;;;10.60;7.57;;;;;;;;;;5114613;28;20054;-87
2023/06/13 03:37:22;;;;;;;8.70;7.20;;;;;;;;;;5114757;28;20057;-86
2023/06/13 03:39:49;;;;;;;7.57;6.68;;;;;;;;;;5115656;28;20101;-86
2023/06/13 03:42:16;;;;;;;7.03;6.32;;;;;;;;;;5114203;28;20104;-86
2023/06/13 03:44:48;;;;;;;10.88;6.82;;;;;;;;;;5115691;28;20052;-86
2023/06/13 03:47:15;;;;;;;8.27;6.70;;;;;;;;;;5114687;28;20150;-86
2023/06/13 03:49:43;;;;;;;8.18;7.38;;;;;;;;;;5114475;28;20466;-86
2023/06/13 03:52:11;;;;;;;15.75;7.72;;;;;;;;;;5114280;28;20465;-86
2023/06/13 03:54:39;;;;;;;10.95;8.70;;;;;;;;;;5115304;28;20541;-86
2023/06/13 03:57:07;;;;;;;10.57;9.00;;;;;;;;;;5114452;28;20051;-86
2023/06/13 03:59:35;;;;;;;14.00;9.15;;;;;;;;;;5114186;28;20116;-86
2023/06/13 04:02:03;;;;;;;14.55;9.43;;;;;;;;;;5114293;28;20123;-85
2023/06/13 04:04:32;;;;;;;10.38;7.63;;;;;;;;;;5113626;28;20054;-86
2023/06/13 04:07:05;;;;;;;8.80;7.40;;;;;;;;;;5114115;28;20054;-85
2023/06/13 04:09:32;;;;;;;7.38;6.20;;;;;;;;;;5113805;28;20484;-86
2023/06/13 04:12:00;;;;;;;8.18;7.05;;;;;;;;;;5113880;28;20039;-86
2023/06/13 04:14:27;;;;;;;8.30;6.93;;;;;;;;;;5114086;28;20094;-86
2023/06/13 04:16:54;;;;;;;12.73;6.75;;;;;;;;;;5113787;28;20075;-86
2023/06/13 04:19:23;;;;;;;8.18;6.38;;;;;;;;;;5113733;28;20051;-86
2023/06/13 04:21:51;;;;;;;6.90;6.20;;;;;;;;;;5113071;28;20055;-85
2023/06/13 04:24:19;;;;;;;7.68;6.50;;;;;;;;;;5112596;28;20043;-85
2023/06/13 04:26:46;;;;;;;6.70;5.95;;;;;;;;;;5113511;28;20055;-85
2023/06/13 04:29:15;;;;;;;10.60;6.55;;;;;;;;;;5113350;28;20077;-85
2023/06/13 04:31:44;;;;;;;18.23;10.60;;;;;;;;;;5113042;28;20496;-85
2023/06/13 04:34:12;;;;;;;33.05;18.17;;;;;;;;;;5112605;28;20101;-86
2023/06/13 04:36:41;;;;;;;30.83;20.58;;;;;;;;;;5114305;28;20449;-86
2023/06/13 04:39:09;;;;;;;15.02;11.57;;;;;;;;;;5120569;27;20096;-85
2023/06/13 04:41:37;;;;;;;22.35;13.90;;;;;;;;;;5124943;28;20051;-86
2023/06/13 04:44:05;;;;;;;15.18;8.77;;;;;;;;;;5113341;28;20464;-85
2023/06/13 04:46:33;;;;;;;25.52;9.82;;;;;;;;;;5113176;28;20082;-86
2023/06/13 04:49:04;;;;;;;18.10;11.57;;;;;;;;;;5113211;28;20048;-86
2023/06/13 04:51:33;;;;;;;21.08;11.55;;;;;;;;;;5112979;28;20043;-86
2023/06/13 04:54:00;;;;;;;20.45;9.43;;;;;;;;;;5112917;28;20491;-86
2023/06/13 04:56:28;;;;;;;11.98;7.43;;;;;;;;;;5112741;28;20112;-86
2023/06/13 04:58:55;;;;;;;16.52;7.43;;;;;;;;;;5112743;28;20415;-86
2023/06/13 05:01:26;;;;;;;20.60;7.63;;;;;;;;;;5112845;28;20077;-85
2023/06/13 05:03:55;;;;;;;11.80;7.82;;;;;;;;;;5113092;28;20092;-86
2023/06/13 05:06:27;;;;;;;13.82;8.32;;;;;;;;;;5112965;28;20051;-86
2023/06/13 05:08:54;;;;;;;15.35;9.02;;;;;;;;;;5112714;28;20058;-86
2023/06/13 05:11:21;;;;;;;10.25;7.50;;;;;;;;;;5113792;28;20071;-85
2023/06/13 05:13:49;;;;;;;10.52;7.15;;;;;;;;;;5112558;28;20112;-86
2023/06/13 05:16:17;;;;;;;13.32;7.75;;;;;;;;;;5112935;28;20055;-87
2023/06/13 05:18:46;;;;;;;10.13;6.93;;;;;;;;;;5113487;28;20074;-85
2023/06/13 05:21:17;;;;;;;6.63;5.38;;;;;;;;;;5112689;28;20410;-87
2023/06/13 05:23:44;;;;;;;17.33;5.75;;;;;;;;;;5113489;28;20059;-87
2023/06/13 05:26:12;;;;;;;7.72;5.45;;;;;;;;;;5112684;28;20047;-87
2023/06/13 05:28:40;;;;;;;8.50;5.40;;;;;;;;;;5112504;28;20067;-84
2023/06/13 05:31:07;;;;;;;8.02;5.13;;;;;;;;;;5112537;28;20054;-85
2023/06/13 05:33:37;;;;;;;7.78;4.88;;;;;;;;;;5111865;28;20051;-85
2023/06/13 05:36:04;;;;;;;8.77;4.88;;;;;;;;;;5112582;28;20048;-86
2023/06/13 05:38:32;;;;;;;11.90;6.10;;;;;;;;;;5112347;28;20076;-85
2023/06/13 05:41:00;;;;;;;10.45;5.47;;;;;;;;;;5112675;28;20185;-85
2023/06/13 05:43:27;;;;;;;8.02;5.00;;;;;;;;;;5111948;28;20043;-85
2023/06/13 05:45:54;;;;;;;13.25;7.35;;;;;;;;;;5112509;28;20067;-85
2023/06/13 05:48:22;;;;;;;10.52;5.82;;;;;;;;;;5112785;28;20465;-85
2023/06/13 05:50:49;;;;;;;6.95;5.32;;;;;;;;;;5112104;28;20806;-84
2023/06/13 05:53:16;;;;;;;7.60;5.03;;;;;;;;;;5114610;28;20056;-86
2023/06/13 05:55:44;;;;;;;8.68;4.95;;;;;;;;;;5124430;28;20051;-85
2023/06/13 05:58:11;;;;;;;6.50;4.40;;;;;;;;;;5117267;28;20043;-85
2023/06/13 06:00:40;;;;;;;4.38;4.03;;;;;;;;;;5112476;28;20047;-85
2023/06/13 06:03:08;;;;;;;8.38;4.82;;;;;;;;;;5112574;28;20135;-84
2023/06/13 06:05:35;;;;;;;4.50;3.92;;;;;;;;;;5112493;28;20110;-85
2023/06/13 06:08:02;;;;;;;4.53;3.85;;;;;;;;;;5112463;28;20098;-85
2023/06/13 06:10:30;;;;;;;5.13;3.80;;;;;;;;;;5112149;28;20059;-85
2023/06/13 06:12:57;;;;;;;7.88;4.05;;;;;;;;;;5112447;28;20081;-86
2023/06/13 06:15:24;;;;;;;5.47;3.72;;;;;;;;;;5113432;28;20051;-86
2023/06/13 06:17:51;;;;;;;3.92;3.63;;;;;;;;;;5111937;28;20077;-86
2023/06/13 06:20:19;;;;;;;6.93;3.90;;;;;;;;;;5112446;28;20081;-85
2023/06/13 06:22:46;;;;;;;3.95;3.58;;;;;;;;;;5112154;28;20090;-85
2023/06/13 06:25:19;;;;;;;4.90;3.55;;;;;;;;;;5112587;28;20130;-85
2023/06/13 06:27:49;;;;;;;;;;;;;;;;;;5111751;28;20135;-86
2023/06/13 06:30:16;;;;;;;5.47;4.20;;;;;;;;;;5111913;28;20032;-85
2023/06/13 06:32:44;;;;;;;4.47;3.55;;;;;;;;;;5111985;28;20083;-85
2023/06/13 06:35:11;;;;;;;6.50;4.22;;;;;;;;;;5113332;28;20487;-85
2023/06/13 06:37:39;;;;;;;10.85;4.20;;;;;;;;;;5112381;28;20051;-86
2023/06/13 06:40:08;;;;;;;7.47;3.78;;;;;;;;;;5112307;28;20044;-86
2023/06/13 06:42:35;;;;;;;4.90;3.80;;;;;;;;;;5111934;28;20052;-86
2023/06/13 06:45:03;;;;;;;4.20;3.80;;;;;;;;;;5114641;28;20477;-85
2023/06/13 06:47:30;;;;;;;4.28;3.90;;;;;;;;;;5115585;28;20039;-85
2023/06/13 06:49:57;;;;;;;8.05;5.22;;;;;;;;;;5103508;28;20503;-85
2023/06/13 06:52:24;;;;;;;6.15;4.40;;;;;;;;;;5095359;28;20048;-85
2023/06/13 06:54:52;;;;;;;5.93;5.03;;;;;;;;;;5095497;28;20493;-86
2023/06/13 06:57:19;;;;;;;12.10;6.55;;;;;;;;;;5094889;28;20047;-85
2023/06/13 06:59:49;;;;;;;10.30;5.55;;;;;;;;;;5095715;28;20074;-85
2023/06/13 07:02:16;;;;;;;10.95;6.85;;;;;;;;;;5093292;28;20105;-85
2023/06/13 07:04:44;;;;;;;12.30;6.38;;;;;;;;;;5094876;28;20072;-85
2023/06/13 07:07:11;;;;;;;8.55;5.90;;;;;;;;;;5093862;28;20481;-85
2023/06/13 07:09:38;;;;;;;8.75;3.88;;;;;;;;;;5093969;28;20153;-85
2023/06/13 07:12:06;;;;;;;4.40;3.65;;;;;;;;;;5111304;28;20069;-85
2023/06/13 07:14:33;;;;;;;10.05;3.55;;;;;;;;;;5098185;28;20044;-86
2023/06/13 07:17:01;;;;;;;5.60;4.18;;;;;;;;;;5095159;28;20118;-86
2023/06/13 07:19:28;;;;;;;7.07;3.53;;;;;;;;;;5095091;28;20412;-85
2023/06/13 07:21:56;;;;;;;5.93;3.33;;;;;;;;;;5095065;28;20048;-86
2023/06/13 07:24:23;;;;;;;6.40;3.42;;;;;;;;;;5094957;28;20059;-87
2023/06/13 07:26:50;;;;;;;5.65;2.95;;;;;;;;;;5096139;28;20079;-87
2023/06/13 07:29:18;;;;;;;5.43;3.20;;;;;;;;;;5094696;28;20090;-86
2023/06/13 07:31:45;;;;;;;3.30;2.60;;;;;;;;;;5095111;28;20103;-86
2023/06/13 07:34:12;;;;;;;6.80;2.63;;;;;;;;;;5095446;28;20039;-85
2023/06/13 07:36:59;;;;;;;2.33;2.17;;;;;;;;;;5094244;28;20058;-86
2023/06/13 07:39:26;;;;;;;6.78;2.35;;;;;;;;;;5094350;28;20102;-87
2023/06/13 07:41:54;;;;;;;3.35;2.17;;;;;;;;;;5093433;28;20055;-87
2023/06/13 07:44:21;;;;;;;2.75;2.55;;;;;;;;;;5094400;28;20040;-85
2023/06/13 07:46:51;;;;;;;3.05;2.10;;;;;;;;;;5094453;28;20077;-87
2023/06/13 07:49:18;;;;;;;4.72;1.80;;;;;;;;;;5094373;28;20052;-86
2023/06/13 07:51:46;;;;;;;4.63;1.83;;;;;;;;;;5094227;28;20049;-86
2023/06/13 07:54:15;;;;;;;3.10;2.42;;;;;;;;;;5093700;28;20087;-88
2023/06/13 07:56:44;;;;;;;7.63;2.20;;;;;;;;;;5093564;28;20070;-86
2023/06/13 07:59:11;;;;;;;3.22;2.10;;;;;;;;;;5094407;28;20051;-86
2023/06/13 08:01:38;;;;;;;4.30;2.00;;;;;;;;;;5093889;28;20048;-85
2023/06/13 08:04:06;;;;;;;2.05;1.88;;;;;;;;;;5094089;28;20059;-87
2023/06/13 08:06:33;;;;;;;3.03;2.17;;;;;;;;;;5094348;28;20435;-87
2023/06/13 08:09:00;;;;;;;3.00;2.30;;;;;;;;;;5093813;28;20040;-87
2023/06/13 08:11:28;;;;;;;7.53;2.30;;;;;;;;;;5095080;28;20109;-86
2023/06/13 08:13:55;;;;;;;3.95;2.17;;;;;;;;;;5094143;28;20052;-89
2023/06/13 08:16:22;;;;;;;3.55;2.40;;;;;;;;;;5094719;28;20488;-84
2023/06/13 08:18:50;;;;;;;4.70;1.95;;;;;;;;;;5094058;28;20074;-89
2023/06/13 08:21:17;;;;;;;3.28;2.15;;;;;;;;;;5095273;28;20480;-92
2023/06/13 08:23:45;;;;;;;3.15;1.90;;;;;;;;;;5093976;28;20061;-87
2023/06/13 08:26:12;;;;;;;5.07;2.22;;;;;;;;;;5094483;28;20040;-89
2023/06/13 08:28:42;;;;;;;5.72;2.05;;;;;;;;;;5106155;28;20052;-88
2023/06/13 08:31:10;;;;;;;5.18;2.17;;;;;;;;;;5096852;28;20044;-86
2023/06/13 08:33:58;;;;;;;9.48;1.75;;;;;;;;;;5094166;28;20054;-86
2023/06/13 08:36:36;;;;;;;3.35;1.80;;;;;;;;;;5093451;28;20048;-88
2023/06/13 08:39:06;;;;;;;10.23;2.40;;;;;;;;;;5093554;28;20048;-87
2023/06/13 08:41:37;;;;;;;6.05;2.20;;;;;;;;;;5093259;28;20407;-87
2023/06/13 08:44:04;;;;;;;4.07;1.85;;;;;;;;;;5093688;28;20403;-87
2023/06/13 08:46:33;;;;;;;2.72;2.17;;;;;;;;;;5093254;28;20060;-87
2023/06/13 08:49:00;;;;;;;8.80;2.30;;;;;;;;;;5093912;28;20131;-88
2023/06/13 08:51:30;;;;;;;3.38;2.30;;;;;;;;;;5093356;28;20134;-87
2023/06/13 08:54:02;;;;;;;2.42;2.22;;;;;;;;;;5093649;28;20121;-87
2023/06/13 08:56:35;;;;;;;10.00;2.35;;;;;;;;;;5092997;28;20047;-89
2023/06/13 08:59:08;;;;;;;5.00;2.27;;;;;;;;;;5095144;28;20366;-94
2023/06/13 09:01:39;;;;;;;4.47;2.00;;;;;;;;;;5093478;28;20558;-93
2023/06/13 09:04:08;;;;;;;6.25;2.03;;;;;;;;;;5093671;28;20105;-93
2023/06/13 09:06:37;;;;;;;16.08;2.42;;;;;;;;;;5092408;28;20047;-89
2023/06/13 09:09:08;;;;;;;4.80;2.13;;;;;;;;;;5093099;28;20064;-90
2023/06/13 09:11:36;;;;;;;3.15;2.05;;;;;;;;;;5093644;28;20058;-88
2023/06/13 09:14:05;;;;;;;3.20;1.83;;;;;;;;;;5093644;28;20050;-87
2023/06/13 09:16:32;;;;;;;5.40;2.47;;;;;;;;;;5094180;28;20056;-87
2023/06/13 09:19:00;;;;;;;7.38;2.08;;;;;;;;;;5095189;28;20133;-86
2023/06/13 09:21:28;;;;;;;3.55;2.40;;;;;;;;;;5094160;28;20056;-88
2023/06/13 09:23:56;;;;;;;5.28;1.98;;;;;;;;;;5093016;28;20052;-93
2023/06/13 09:26:25;;;;;;;6.32;2.30;;;;;;;;;;5093185;28;20070;-93
2023/06/13 09:28:54;;;;;;;3.22;2.10;;;;;;;;;;5093765;28;20480;-87
2023/06/13 09:31:21;;;;;;;2.78;2.15;;;;;;;;;;5092638;28;20076;-86
2023/06/13 09:33:49;;;;;;;5.03;2.10;;;;;;;;;;5092494;28;20079;-85
2023/06/13 09:36:17;;;;;;;6.22;2.50;;;;;;;;;;5092546;28;20121;-88
2023/06/13 09:38:45;;;;;;;4.55;1.98;;;;;;;;;;5093717;28;20050;-91
2023/06/13 09:41:13;;;;;;;3.00;1.92;;;;;;;;;;5093441;28;20052;-88
2023/06/13 09:43:42;;;;;;;3.00;1.88;;;;;;;;;;5097787;28;20234;-89
2023/06/13 09:46:10;;;;;;;3.50;1.92;;;;;;;;;;5103564;28;20485;-87
2023/06/13 09:48:38;;;;;;;2.55;1.80;;;;;;;;;;5093248;28;20056;-87
2023/06/13 09:51:11;;;;;;;4.78;1.65;;;;;;;;;;5093442;28;20083;-88
2023/06/13 09:53:39;;;;;;;2.72;1.80;;;;;;;;;;5092773;28;20055;-86
2023/06/13 09:56:08;;;;;;;5.28;1.92;;;;;;;;;;5092989;28;20054;-86
2023/06/13 09:58:36;;;;;;;8.05;1.90;;;;;;;;;;5093288;28;20068;-89
2023/06/13 10:01:03;;;;;;;3.38;1.80;;;;;;;;;;5092544;28;20124;-89
2023/06/13 10:03:31;;;;;;;2.55;1.77;;;;;;;;;;5093067;28;20446;-86
2023/06/13 10:05:59;;;;;;;7.50;2.03;;;;;;;;;;5093900;28;20048;-89
2023/06/13 10:08:26;;;;;;;2.42;1.98;;;;;;;;;;5093094;28;20489;-88
2023/06/13 10:10:54;;;;;;;4.70;1.70;;;;;;;;;;5093414;28;20040;-93
2023/06/13 10:13:26;;;;;;;7.05;1.80;;;;;;;;;;5092857;28;20415;-89
2023/06/13 10:15:59;;;;;;;3.65;2.00;;;;;;;;;;5092589;28;20078;-91
2023/06/13 10:18:30;;;;;;;4.43;2.00;;;;;;;;;;5093960;28;20139;-89
2023/06/13 10:20:59;;;;;;;9.65;2.10;;;;;;;;;;5096940;28;20067;-88
2023/06/13 10:23:28;;;;;;;4.78;1.90;;;;;;;;;;5097971;28;20044;-91
2023/06/13 10:25:58;;;;;;;2.33;1.90;;;;;;;;;;5096621;28;20048;-89
2023/06/13 10:28:26;;;;;;;5.10;1.90;;;;;;;;;;5097183;28;20048;-93
2023/06/13 10:31:15;;;;;;;9.57;1.85;;;;;;;;;;5098732;28;20549;-88
2023/06/13 10:34:02;;;;;;;5.15;1.83;;;;;;;;;;5096671;28;20056;-90
2023/06/13 10:36:41;;;;;;;3.35;1.52;;;;;;;;;;5096298;28;20044;-88
2023/06/13 10:39:29;;;;;;;2.42;1.63;;;;;;;;;;5096086;28;20076;-91
2023/06/13 10:42:16;;;;;;;11.18;2.30;;;;;;;;;;5096740;28;20533;-87
2023/06/13 10:44:58;;;;;;;8.23;1.77;;;;;;;;;;5096418;28;20093;-88
2023/06/13 10:47:28;;;;;;;4.75;1.85;;;;;;;;;;5096783;28;20396;-92
2023/06/13 10:49:57;;;;;;;4.05;1.98;;;;;;;;;;5096447;28;20134;-88
2023/06/13 10:52:24;;;;;;;4.13;2.00;;;;;;;;;;5095832;28;20052;-90
2023/06/13 10:54:53;;;;;;;3.30;1.95;;;;;;;;;;5096832;28;20543;-87
2023/06/13 10:57:21;;;;;;;4.20;2.22;;;;;;;;;;5095572;28;20044;-89
2023/06/13 10:59:49;;;;;;;2.25;2.10;;;;;;;;;;5097226;28;20054;-87
2023/06/13 11:02:18;;;;;;;5.35;1.98;;;;;;;;;;5111142;28;20097;-86
2023/06/13 11:04:49;;;;;;;4.68;1.75;;;;;;;;;;5099482;28;20071;-88
2023/06/13 11:07:23;;;;;;;2.80;1.83;;;;;;;;;;5095822;28;20071;-87
2023/06/13 11:10:10;;;;;;;3.00;1.95;;;;;;;;;;5095717;28;20098;-89
2023/06/13 11:12:37;;;;;;;2.65;2.00;;;;;;;;;;5097618;28;20055;-90
2023/06/13 11:15:05;;;;;;;7.25;2.60;;;;;;;;;;5096407;28;20048;-91
2023/06/13 11:17:33;;;;;;;3.17;2.50;;;;;;;;;;5095705;28;20106;-88
2023/06/13 11:20:00;;;;;;;3.30;2.00;;;;;;;;;;5096267;28;20040;-94
2023/06/13 11:22:29;;;;;;;6.65;2.58;;;;;;;;;;5094987;28;20052;-89
2023/06/13 11:24:58;;;;;;;5.32;2.10;;;;;;;;;;5095223;28;20500;-88
2023/06/13 11:27:25;;;;;;;2.92;2.20;;;;;;;;;;5095588;28;20054;-89
2023/06/13 11:29:53;;;;;;;4.50;2.03;;;;;;;;;;5094622;28;20052;-93
2023/06/13 11:32:22;;;;;;;7.10;2.58;;;;;;;;;;5098721;28;20052;-89
2023/06/13 11:34:51;;;;;;;7.40;2.10;;;;;;;;;;5099653;28;20075;-91
2023/06/13 11:37:25;;;;;;;6.47;2.00;;;;;;;;;;5094954;28;20056;-93
2023/06/13 11:39:56;;;;;;;3.78;2.15;;;;;;;;;;5095133;28;20044;-90
2023/06/13 11:42:43;;;;;;;3.47;2.28;;;;;;;;;;5095490;28;20046;-90
2023/06/13 11:45:10;;;;;;;3.63;2.15;;;;;;;;;;5094851;28;20517;-88
2023/06/13 11:47:37;;;;;;;3.20;2.35;;;;;;;;;;5095670;28;20058;-89
2023/06/13 11:50:05;;;;;;;4.25;1.98;;;;;;;;;;5095258;28;20044;-93
2023/06/13 11:52:33;;;;;;;6.60;2.30;;;;;;;;;;5094334;28;20051;-88
2023/06/13 11:55:01;;;;;;;8.18;2.15;;;;;;;;;;5094598;28;20476;-90
2023/06/13 11:57:48;;;;;;;7.70;2.55;;;;;;;;;;5094389;28;20531;-91
2023/06/13 12:00:15;;;;;;;4.25;2.10;;;;;;;;;;5094150;28;20062;-84
2023/06/13 12:02:44;;;;;;;2.60;2.20;;;;;;;;;;5093596;28;20048;-86
2023/06/13 12:05:11;;;;;;;3.33;2.25;;;;;;;;;;5094169;28;20492;-85
2023/06/13 12:07:39;;;;;;;2.20;2.10;;;;;;;;;;5093986;28;20136;-85
2023/06/13 12:10:07;;;;;;;5.07;2.50;;;;;;;;;;5093882;28;20060;-86
2023/06/13 12:12:34;;;;;;;6.90;2.63;;;;;;;;;;5093584;28;20079;-85
2023/06/13 12:15:03;;;;;;;6.65;2.33;;;;;;;;;;5093747;28;20051;-86
2023/06/13 12:17:30;;;;;;;4.45;2.10;;;;;;;;;;5093705;28;20465;-88
2023/06/13 12:20:08;;;;;;;5.03;2.60;;;;;;;;;;5110306;28;20028;-86
2023/06/13 12:22:36;;;;;;;3.30;2.20;;;;;;;;;;5094536;28;20048;-85
2023/06/13 12:25:03;;;;;;;3.33;2.40;;;;;;;;;;5093726;28;20044;-86
2023/06/13 12:27:32;;;;;;;4.55;2.13;;;;;;;;;;5093470;28;20047;-86
2023/06/13 12:30:10;;;;;;;4.18;2.35;;;;;;;;;;5091887;28;20078;-88
2023/06/13 12:32:39;;;;;;;3.53;2.50;;;;;;;;;;5093333;28;20055;-90
2023/06/13 12:35:06;;;;;;;5.72;2.50;;;;;;;;;;5093754;28;20044;-87
2023/06/13 12:37:35;;;;;;;3.75;2.50;;;;;;;;;;5093640;28;20047;-89
2023/06/13 12:40:09;;;;;;;4.03;2.30;;;;;;;;;;5093418;28;20101;-85
2023/06/13 12:42:37;;;;;;;2.38;2.13;;;;;;;;;;5091157;28;20389;-85
2023/06/13 12:45:04;;;;;;;2.45;2.15;;;;;;;;;;5092421;28;20079;-85
2023/06/13 12:47:32;;;;;;;3.53;2.58;;;;;;;;;;5093969;28;20481;-86
2023/06/13 12:50:07;;;;;;;4.47;2.75;;;;;;;;;;5093433;28;20040;-88
2023/06/13 12:52:35;;;;;;;2.47;2.30;;;;;;;;;;5094235;28;20048;-88
2023/06/13 12:55:04;;;;;;;5.75;2.40;;;;;;;;;;5093584;28;20074;-89
2023/06/13 12:57:32;;;;;;;4.63;2.40;;;;;;;;;;5093923;28;20090;-88
2023/06/13 12:59:59;;;;;;;3.28;2.22;;;;;;;;;;5092946;28;20052;-90
2023/06/13 13:02:29;;;;;;;3.92;2.40;;;;;;;;;;5092911;28;20052;-89
2023/06/13 13:05:00;;;;;;;3.38;2.20;;;;;;;;;;5093299;28;20107;-89
2023/06/13 13:07:29;;;;;;;3.20;2.60;;;;;;;;;;5094111;28;20055;-88
2023/06/13 13:09:57;;;;;;;2.42;2.30;;;;;;;;;;5094288;28;20052;-91
2023/06/13 13:12:25;;;;;;;2.65;2.20;;;;;;;;;;5092762;28;20052;-87
2023/06/13 13:14:52;;;;;;;5.85;2.50;;;;;;;;;;5093074;28;20048;-91
2023/06/13 13:17:19;;;;;;;5.50;2.78;;;;;;;;;;5093167;28;20113;-87
2023/06/13 13:19:52;;;;;;;2.72;2.20;;;;;;;;;;5093092;28;20055;-88
2023/06/13 13:22:23;;;;;;;3.83;2.42;;;;;;;;;;5092957;28;20048;-88
2023/06/13 13:24:52;;;;;;;6.05;2.50;;;;;;;;;;5092858;28;20059;-86
2023/06/13 13:27:19;;;;;;;2.97;2.30;;;;;;;;;;5092931;28;20077;-87
2023/06/13 13:29:46;;;;;;;5.30;2.58;;;;;;;;;;5093060;28;20044;-88
2023/06/13 13:32:14;;;;;;;3.05;2.47;;;;;;;;;;5092721;28;20580;-88
2023/06/13 13:34:41;;;;;;;3.45;2.40;;;;;;;;;;5093276;28;20536;-88
2023/06/13 13:37:08;;;;;;;7.25;2.65;;;;;;;;;;5102045;28;20056;-88
2023/06/13 13:39:36;;;;;;;2.50;2.33;;;;;;;;;;5095489;28;20101;-87
2023/06/13 13:42:03;;;;;;;3.67;2.53;;;;;;;;;;5093719;28;20511;-90
2023/06/13 13:44:44;;;;;;;3.25;2.28;;;;;;;;;;5092507;28;20566;-88
2023/06/13 13:47:11;;;;;;;4.10;2.38;;;;;;;;;;5094026;28;20048;-90
2023/06/13 13:49:38;;;;;;;5.43;2.65;;;;;;;;;;5092641;28;20397;-88
2023/06/13 13:52:06;;;;;;;5.82;2.25;;;;;;;;;;5092610;28;20420;-87
2023/06/13 13:54:34;;;;;;;2.65;1.92;;;;;;;;;;5095779;28;20044;-88
2023/06/13 13:57:03;;;;;;;4.10;2.90;;;;;;;;;;5096621;28;20048;-87
2023/06/13 13:59:30;;;;;;;2.70;2.50;;;;;;;;;;5096629;28;20097;-88
2023/06/13 14:01:57;;;;;;;2.95;2.60;;;;;;;;;;5096930;28;20048;-90
2023/06/13 14:04:24;;;;;;;4.13;2.50;;;;;;;;;;5096596;28;20051;-88
2023/06/13 14:06:52;;;;;;;3.72;2.85;;;;;;;;;;5096729;28;20048;-90
2023/06/13 14:09:19;;;;;;;4.03;2.63;;;;;;;;;;5096713;28;20044;-87
2023/06/13 14:11:48;;;;;;;7.13;2.65;;;;;;;;;;5096494;28;20044;-88
2023/06/13 14:14:15;;;;;;;6.47;3.00;;;;;;;;;;5096864;28;20044;-88
2023/06/13 14:16:42;;;;;;;3.90;2.60;;;;;;;;;;5097352;28;20077;-87
2023/06/13 14:19:10;;;;;;;5.60;2.60;;;;;;;;;;5096328;28;20048;-86
2023/06/13 14:21:37;;;;;;;3.03;2.67;;;;;;;;;;5095999;28;20044;-86
2023/06/13 14:24:05;;;;;;;4.28;3.10;;;;;;;;;;5096714;28;20055;-91
2023/06/13 14:26:32;;;;;;;4.55;2.60;;;;;;;;;;5096349;28;20138;-87
2023/06/13 14:28:59;;;;;;;2.90;2.70;;;;;;;;;;5096201;28;20048;-86
2023/06/13 14:31:27;;;;;;;3.80;2.83;;;;;;;;;;5095658;28;20105;-87
2023/06/13 14:33:55;;;;;;;3.25;2.70;;;;;;;;;;5096321;28;20052;-86
2023/06/13 14:36:22;;;;;;;2.95;2.70;;;;;;;;;;5095875;28;20621;-86
2023/06/13 14:38:50;;;;;;;8.70;2.95;;;;;;;;;;5095731;28;20101;-88
2023/06/13 14:41:17;;;;;;;4.00;2.70;;;;;;;;;;5096030;28;20040;-87
2023/06/13 14:43:44;;;;;;;5.47;2.95;;;;;;;;;;5095881;28;20105;-88
2023/06/13 14:46:12;;;;;;;5.10;2.97;;;;;;;;;;5095879;28;20066;-89
2023/06/13 14:48:39;;;;;;;3.60;2.60;;;;;;;;;;5095764;28;20109;-87
2023/06/13 14:51:06;;;;;;;2.92;2.53;;;;;;;;;;5096515;28;20131;-87